LYTV/TIV METAR and TAF weather

Enter ICAO airport designator
Station Type Date Time Source
LYTV METAR 2020/02/24 07:30 UTC NOAA

LYTV 240730Z VRB01KT CAVOK 08/08 Q1021 NOSIG


Station Type Date Time Source
LYTV Decoded METAR 2020/02/24 07:30 UTC NOAA

Tivat, Serbia and Montenegro (LYTV) 42-24N 018-44E 5M
Feb 24, 2020 - 02:30 AM EST / 2020.02.24 0730 UTC
Wind: Variable at 1 MPH (1 KT):0
Visibility: greater than 7 mile(s):0
Temperature: 46 F (8 C)
Dew Point: 46 F (8 C)
Relative Humidity: 100%
Pressure (altimeter): 30.15 in. Hg (1021 hPa)
ob: LYTV 240730Z VRB01KT CAVOK 08/08 Q1021 NOSIG
cycle: 7

Station Type Date Time Source
LYTV TAF 2020/02/24 06:24 UTC NOAA

TAF LYTV 240500Z 2406/2506 VRB02KT CAVOK TX16/2413Z TN01/2503Z

Example: see airport list